X  Sluiten METAR luchtvaart weer gegevens         EBOS Ostend-Bruges International Airport
Temperatuur
6°C Temperatuur
4°C Dauwpunt
87% Vochtigheid



Wind
11 KM/U
7 MPH
3 M/S
6 KTS



320°
NW
Huidig weer

Mostly Clear Grotendeels helder
Luchtdruk 1038 (hPa) - 30.65 (inHg)
Zicht 7 (mijl) - 11 (km)
Vliegveld
Vliegveld code EBOS

Locatie : Ostend-Bruges International Airport
Afstand: 60 (km)

Metar:
METAR EBOS 171620Z 32006KT CAVOK 06/04 Q1038 NOSIG

Tijd: 17-01-2022 17:20 CET